sensor_id;sensor_type;location;lat;lon;timestamp;pressure;altitude;pressure_sealevel;temperature;humidity
60061;BME280;45933;51.336;12.612;2023-08-21T00:00:33;100424.09;;;26.51;47.56
60061;BME280;45933;51.336;12.612;2023-08-21T00:02:58;100427.06;;;26.46;47.30
60061;BME280;45933;51.336;12.612;2023-08-21T00:05:24;100425.47;;;26.44;47.55
60061;BME280;45933;51.336;12.612;2023-08-21T00:07:49;100423.06;;;26.39;47.23
60061;BME280;45933;51.336;12.612;2023-08-21T00:10:16;100427.09;;;26.32;47.37
60061;BME280;45933;51.336;12.612;2023-08-21T00:12:42;100416.72;;;26.27;47.33
60061;BME280;45933;51.336;12.612;2023-08-21T00:15:08;100423.38;;;26.20;47.43
60061;BME280;45933;51.336;12.612;2023-08-21T00:17:35;100420.72;;;26.20;47.55
60061;BME280;45933;51.336;12.612;2023-08-21T00:20:00;100417.19;;;26.20;47.51
60061;BME280;45933;51.336;12.612;2023-08-21T00:22:25;100413.09;;;26.14;47.50
60061;BME280;45933;51.336;12.612;2023-08-21T00:24:50;100408.94;;;26.10;47.67
60061;BME280;45933;51.336;12.612;2023-08-21T00:27:16;100411.81;;;26.07;47.73
60061;BME280;45933;51.336;12.612;2023-08-21T00:29:41;100408.69;;;26.00;47.84
60061;BME280;45933;51.336;12.612;2023-08-21T00:32:06;100407.91;;;25.98;47.77
60061;BME280;45933;51.336;12.612;2023-08-21T00:34:32;100409.94;;;25.95;47.85
60061;BME280;45933;51.336;12.612;2023-08-21T00:36:57;100410.22;;;25.90;47.60
60061;BME280;45933;51.336;12.612;2023-08-21T00:39:22;100412.22;;;25.87;48.03
60061;BME280;45933;51.336;12.612;2023-08-21T00:41:48;100407.28;;;25.80;48.17
60061;BME280;45933;51.336;12.612;2023-08-21T00:44:13;100405.75;;;25.76;48.25
60061;BME280;45933;51.336;12.612;2023-08-21T00:46:38;100400.53;;;25.75;48.39
60061;BME280;45933;51.336;12.612;2023-08-21T00:49:04;100401.72;;;25.69;48.72
60061;BME280;45933;51.336;12.612;2023-08-21T00:51:29;100404.47;;;25.68;48.67
60061;BME280;45933;51.336;12.612;2023-08-21T00:53:55;100405.53;;;25.65;49.05
60061;BME280;45933;51.336;12.612;2023-08-21T00:56:20;100407.47;;;25.63;49.04
60061;BME280;45933;51.336;12.612;2023-08-21T00:58:46;100410.13;;;25.63;48.79
60061;BME280;45933;51.336;12.612;2023-08-21T01:01:14;100415.38;;;25.65;48.97
60061;BME280;45933;51.336;12.612;2023-08-21T01:03:40;100414.63;;;25.63;48.96
60061;BME280;45933;51.336;12.612;2023-08-21T01:06:06;100415.56;;;25.62;48.64
60061;BME280;45933;51.336;12.612;2023-08-21T01:08:53;100414.97;;;25.71;48.71
60061;BME280;45933;51.336;12.612;2023-08-21T01:11:36;100421.38;;;25.68;48.53
60061;BME280;45933;51.336;12.612;2023-08-21T01:14:17;100422.41;;;25.66;48.62
60061;BME280;45933;51.336;12.612;2023-08-21T01:16:47;100424.91;;;25.54;49.24
60061;BME280;45933;51.336;12.612;2023-08-21T01:19:26;100424.63;;;25.59;48.93
60061;BME280;45933;51.336;12.612;2023-08-21T01:21:55;100427.09;;;25.48;49.05
60061;BME280;45933;51.336;12.612;2023-08-21T01:24:21;100431.59;;;25.47;48.79
60061;BME280;45933;51.336;12.612;2023-08-21T01:26:46;100439.59;;;25.47;49.36
60061;BME280;45933;51.336;12.612;2023-08-21T01:29:11;100433.47;;;25.45;49.90
60061;BME280;45933;51.336;12.612;2023-08-21T01:31:39;100439.09;;;25.41;50.69
60061;BME280;45933;51.336;12.612;2023-08-21T01:34:09;100440.06;;;25.40;50.45
60061;BME280;45933;51.336;12.612;2023-08-21T01:36:36;100439.31;;;25.38;50.18
60061;BME280;45933;51.336;12.612;2023-08-21T01:39:02;100443.78;;;25.37;50.20
60061;BME280;45933;51.336;12.612;2023-08-21T01:41:29;100432.31;;;25.35;50.41
60061;BME280;45933;51.336;12.612;2023-08-21T01:43:54;100437.59;;;25.37;50.22
60061;BME280;45933;51.336;12.612;2023-08-21T01:46:19;100431.38;;;25.36;50.27
60061;BME280;45933;51.336;12.612;2023-08-21T01:48:45;100435.00;;;25.35;50.06
60061;BME280;45933;51.336;12.612;2023-08-21T01:51:10;100431.56;;;25.33;50.65
60061;BME280;45933;51.336;12.612;2023-08-21T01:53:36;100432.53;;;25.32;50.74
60061;BME280;45933;51.336;12.612;2023-08-21T01:56:01;100434.41;;;25.30;50.88
60061;BME280;45933;51.336;12.612;2023-08-21T01:58:26;100432.97;;;25.24;50.51
60061;BME280;45933;51.336;12.612;2023-08-21T02:00:51;100430.41;;;25.23;50.74
60061;BME280;45933;51.336;12.612;2023-08-21T02:03:17;100431.53;;;25.19;50.71
60061;BME280;45933;51.336;12.612;2023-08-21T02:05:42;100437.94;;;25.16;50.21
60061;BME280;45933;51.336;12.612;2023-08-21T02:08:11;100440.59;;;25.16;50.81
60061;BME280;45933;51.336;12.612;2023-08-21T02:10:36;100443.66;;;25.10;50.65
60061;BME280;45933;51.336;12.612;2023-08-21T02:13:01;100430.56;;;25.06;51.10
60061;BME280;45933;51.336;12.612;2023-08-21T02:15:27;100432.53;;;25.02;51.08
60061;BME280;45933;51.336;12.612;2023-08-21T02:17:52;100434.63;;;24.97;51.20
60061;BME280;45933;51.336;12.612;2023-08-21T02:20:17;100425.66;;;24.98;51.20
60061;BME280;45933;51.336;12.612;2023-08-21T02:22:43;100425.09;;;24.93;51.17
60061;BME280;45933;51.336;12.612;2023-08-21T02:25:08;100431.47;;;24.90;51.27
60061;BME280;45933;51.336;12.612;2023-08-21T02:27:33;100436.00;;;24.88;51.61
60061;BME280;45933;51.336;12.612;2023-08-21T02:29:59;100436.38;;;24.82;51.65
60061;BME280;45933;51.336;12.612;2023-08-21T02:32:24;100433.66;;;24.84;51.34
60061;BME280;45933;51.336;12.612;2023-08-21T02:34:49;100435.53;;;24.82;51.85
60061;BME280;45933;51.336;12.612;2023-08-21T02:37:15;100432.00;;;24.81;52.04
60061;BME280;45933;51.336;12.612;2023-08-21T02:39:40;100428.38;;;24.82;52.07
60061;BME280;45933;51.336;12.612;2023-08-21T02:42:06;100426.78;;;24.80;52.48
60061;BME280;45933;51.336;12.612;2023-08-21T02:44:31;100422.41;;;24.78;52.42
60061;BME280;45933;51.336;12.612;2023-08-21T02:46:56;100419.81;;;24.77;52.54
60061;BME280;45933;51.336;12.612;2023-08-21T02:49:21;100425.06;;;24.78;52.74
60061;BME280;45933;51.336;12.612;2023-08-21T02:51:47;100427.63;;;24.80;52.22
60061;BME280;45933;51.336;12.612;2023-08-21T02:54:12;100425.91;;;24.79;51.99
60061;BME280;45933;51.336;12.612;2023-08-21T02:56:37;100423.31;;;24.77;51.71
60061;BME280;45933;51.336;12.612;2023-08-21T02:59:03;100429.59;;;24.76;51.94
60061;BME280;45933;51.336;12.612;2023-08-21T03:01:28;100418.25;;;24.73;51.87
60061;BME280;45933;51.336;12.612;2023-08-21T03:03:53;100421.97;;;24.70;51.83
60061;BME280;45933;51.336;12.612;2023-08-21T03:06:19;100418.72;;;24.65;52.16
60061;BME280;45933;51.336;12.612;2023-08-21T03:08:44;100416.06;;;24.65;52.06
60061;BME280;45933;51.336;12.612;2023-08-21T03:11:09;100410.91;;;24.62;52.21
60061;BME280;45933;51.336;12.612;2023-08-21T03:13:35;100416.53;;;24.58;52.39
60061;BME280;45933;51.336;12.612;2023-08-21T03:16:00;100410.50;;;24.54;52.51
60061;BME280;45933;51.336;12.612;2023-08-21T03:18:30;100413.16;;;24.54;52.68
60061;BME280;45933;51.336;12.612;2023-08-21T03:20:56;100414.66;;;24.44;53.07
60061;BME280;45933;51.336;12.612;2023-08-21T03:23:22;100410.53;;;24.38;53.34
60061;BME280;45933;51.336;12.612;2023-08-21T03:25:47;100412.34;;;24.38;53.36
60061;BME280;45933;51.336;12.612;2023-08-21T03:28:12;100410.63;;;24.37;53.53
60061;BME280;45933;51.336;12.612;2023-08-21T03:30:39;100415.13;;;24.35;53.81
60061;BME280;45933;51.336;12.612;2023-08-21T03:33:05;100403.72;;;24.33;53.50
60061;BME280;45933;51.336;12.612;2023-08-21T03:35:30;100402.06;;;24.30;53.84
60061;BME280;45933;51.336;12.612;2023-08-21T03:37:56;100404.84;;;24.29;53.58
60061;BME280;45933;51.336;12.612;2023-08-21T03:40:21;100406.03;;;24.23;53.94
60061;BME280;45933;51.336;12.612;2023-08-21T03:42:46;100414.13;;;24.21;53.74
60061;BME280;45933;51.336;12.612;2023-08-21T03:45:12;100410.78;;;24.18;54.00
60061;BME280;45933;51.336;12.612;2023-08-21T03:47:37;100413.69;;;24.13;54.11
60061;BME280;45933;51.336;12.612;2023-08-21T03:50:03;100411.97;;;24.12;54.06
60061;BME280;45933;51.336;12.612;2023-08-21T03:52:28;100409.47;;;24.09;54.06
60061;BME280;45933;51.336;12.612;2023-08-21T03:54:53;100409.66;;;24.06;54.40
60061;BME280;45933;51.336;12.612;2023-08-21T03:57:19;100408.13;;;24.02;54.37
60061;BME280;45933;51.336;12.612;2023-08-21T03:59:44;100416.88;;;24.04;54.30
60061;BME280;45933;51.336;12.612;2023-08-21T04:02:09;100423.25;;;24.02;53.94
60061;BME280;45933;51.336;12.612;2023-08-21T04:04:35;100429.50;;;24.00;53.55
60061;BME280;45933;51.336;12.612;2023-08-21T04:07:00;100425.13;;;23.99;53.94
60061;BME280;45933;51.336;12.612;2023-08-21T04:09:25;100428.81;;;23.97;53.49
60061;BME280;45933;51.336;12.612;2023-08-21T04:11:51;100431.56;;;23.95;53.56
60061;BME280;45933;51.336;12.612;2023-08-21T04:14:16;100434.25;;;23.95;53.79
60061;BME280;45933;51.336;12.612;2023-08-21T04:16:41;100430.72;;;23.95;53.86
60061;BME280;45933;51.336;12.612;2023-08-21T04:19:07;100433.44;;;23.93;53.59
60061;BME280;45933;51.336;12.612;2023-08-21T04:21:32;100449.34;;;23.95;53.41
60061;BME280;45933;51.336;12.612;2023-08-21T04:23:59;100445.84;;;23.94;53.69
60061;BME280;45933;51.336;12.612;2023-08-21T04:26:24;100446.69;;;23.95;54.01
60061;BME280;45933;51.336;12.612;2023-08-21T04:28:49;100442.31;;;23.94;53.78
60061;BME280;45933;51.336;12.612;2023-08-21T04:31:15;100448.41;;;23.96;53.93
60061;BME280;45933;51.336;12.612;2023-08-21T04:33:40;100447.34;;;23.98;53.58
60061;BME280;45933;51.336;12.612;2023-08-21T04:36:05;100449.00;;;24.01;53.55
60061;BME280;45933;51.336;12.612;2023-08-21T04:38:31;100453.28;;;24.04;53.60
60061;BME280;45933;51.336;12.612;2023-08-21T04:40:56;100461.97;;;24.07;53.61
60061;BME280;45933;51.336;12.612;2023-08-21T04:43:21;100464.28;;;24.13;53.67
60061;BME280;45933;51.336;12.612;2023-08-21T04:45:51;100471.88;;;24.21;53.88
60061;BME280;45933;51.336;12.612;2023-08-21T04:48:18;100471.88;;;24.21;54.04
60061;BME280;45933;51.336;12.612;2023-08-21T04:50:45;100467.22;;;24.24;54.47
60061;BME280;45933;51.336;12.612;2023-08-21T04:53:10;100477.63;;;24.29;54.08
60061;BME280;45933;51.336;12.612;2023-08-21T04:55:36;100459.56;;;24.34;54.06
60061;BME280;45933;51.336;12.612;2023-08-21T04:58:02;100458.28;;;24.41;53.97
60061;BME280;45933;51.336;12.612;2023-08-21T05:00:27;100452.91;;;24.43;54.21
60061;BME280;45933;51.336;12.612;2023-08-21T05:02:52;100451.69;;;24.48;53.78
60061;BME280;45933;51.336;12.612;2023-08-21T05:05:18;100453.41;;;24.49;54.35
60061;BME280;45933;51.336;12.612;2023-08-21T05:07:43;100456.81;;;24.51;54.22
60061;BME280;45933;51.336;12.612;2023-08-21T05:10:08;100464.75;;;24.53;53.82
60061;BME280;45933;51.336;12.612;2023-08-21T05:12:35;100466.63;;;24.51;53.96
60061;BME280;45933;51.336;12.612;2023-08-21T05:15:00;100469.97;;;24.55;53.80
60061;BME280;45933;51.336;12.612;2023-08-21T05:17:26;100456.75;;;24.53;53.72
60061;BME280;45933;51.336;12.612;2023-08-21T05:19:51;100459.50;;;24.51;54.32
60061;BME280;45933;51.336;12.612;2023-08-21T05:22:17;100462.00;;;24.55;54.30
60061;BME280;45933;51.336;12.612;2023-08-21T05:24:42;100470.75;;;24.57;54.15
60061;BME280;45933;51.336;12.612;2023-08-21T05:27:07;100468.00;;;24.58;54.07
60061;BME280;45933;51.336;12.612;2023-08-21T05:29:33;100466.00;;;24.62;54.66
60061;BME280;45933;51.336;12.612;2023-08-21T05:31:59;100470.41;;;24.63;54.42
60061;BME280;45933;51.336;12.612;2023-08-21T05:34:25;100471.19;;;24.65;54.52
60061;BME280;45933;51.336;12.612;2023-08-21T05:36:50;100467.47;;;24.67;54.57
60061;BME280;45933;51.336;12.612;2023-08-21T05:39:16;100472.38;;;24.75;54.03
60061;BME280;45933;51.336;12.612;2023-08-21T05:41:41;100477.44;;;24.80;54.09
60061;BME280;45933;51.336;12.612;2023-08-21T05:44:06;100478.88;;;24.85;53.74
60061;BME280;45933;51.336;12.612;2023-08-21T05:46:31;100487.47;;;24.90;53.94
60061;BME280;45933;51.336;12.612;2023-08-21T05:48:57;100484.44;;;24.96;53.87
60061;BME280;45933;51.336;12.612;2023-08-21T05:51:22;100492.94;;;25.03;53.51
60061;BME280;45933;51.336;12.612;2023-08-21T05:53:47;100498.03;;;25.08;54.43
60061;BME280;45933;51.336;12.612;2023-08-21T05:56:13;100491.34;;;25.15;54.16
60061;BME280;45933;51.336;12.612;2023-08-21T05:58:38;100481.28;;;25.20;54.29
60061;BME280;45933;51.336;12.612;2023-08-21T06:01:03;100480.72;;;25.29;54.29
60061;BME280;45933;51.336;12.612;2023-08-21T06:03:29;100481.22;;;25.36;54.35
60061;BME280;45933;51.336;12.612;2023-08-21T06:05:54;100488.78;;;25.43;54.13
60061;BME280;45933;51.336;12.612;2023-08-21T06:08:19;100493.63;;;25.51;54.10
60061;BME280;45933;51.336;12.612;2023-08-21T06:10:45;100496.88;;;25.56;53.96
60061;BME280;45933;51.336;12.612;2023-08-21T06:13:10;100502.63;;;25.64;53.63
60061;BME280;45933;51.336;12.612;2023-08-21T06:15:35;100507.38;;;25.73;53.48
60061;BME280;45933;51.336;12.612;2023-08-21T06:18:01;100506.19;;;25.79;53.51
60061;BME280;45933;51.336;12.612;2023-08-21T06:20:26;100498.63;;;25.86;53.20
60061;BME280;45933;51.336;12.612;2023-08-21T06:22:52;100498.16;;;25.93;53.35
60061;BME280;45933;51.336;12.612;2023-08-21T06:25:17;100489.00;;;25.97;53.08
60061;BME280;45933;51.336;12.612;2023-08-21T06:27:44;100482.69;;;25.98;52.98
60061;BME280;45933;51.336;12.612;2023-08-21T06:30:10;100484.03;;;26.05;52.34
60061;BME280;45933;51.336;12.612;2023-08-21T06:32:35;100490.97;;;26.08;52.50
60061;BME280;45933;51.336;12.612;2023-08-21T06:35:00;100488.03;;;26.13;52.24
60061;BME280;45933;51.336;12.612;2023-08-21T06:37:25;100494.88;;;26.17;52.42
60061;BME280;45933;51.336;12.612;2023-08-21T06:39:51;100498.97;;;26.22;52.04
60061;BME280;45933;51.336;12.612;2023-08-21T06:42:16;100501.94;;;26.32;52.02
60061;BME280;45933;51.336;12.612;2023-08-21T06:44:41;100499.59;;;26.40;51.56
60061;BME280;45933;51.336;12.612;2023-08-21T06:47:07;100503.53;;;26.49;51.99
60061;BME280;45933;51.336;12.612;2023-08-21T06:49:32;100493.09;;;26.58;51.26
60061;BME280;45933;51.336;12.612;2023-08-21T06:51:58;100496.03;;;26.68;50.91
60061;BME280;45933;51.336;12.612;2023-08-21T06:54:24;100495.41;;;26.77;50.17
60061;BME280;45933;51.336;12.612;2023-08-21T06:56:49;100501.00;;;26.87;50.45
60061;BME280;45933;51.336;12.612;2023-08-21T06:59:14;100503.06;;;26.96;50.46
60061;BME280;45933;51.336;12.612;2023-08-21T07:01:40;100504.25;;;27.05;49.95
60061;BME280;45933;51.336;12.612;2023-08-21T07:04:05;100509.00;;;27.14;49.40
60061;BME280;45933;51.336;12.612;2023-08-21T07:06:31;100501.22;;;27.24;49.15
60061;BME280;45933;51.336;12.612;2023-08-21T07:08:56;100509.38;;;27.35;49.19
60061;BME280;45933;51.336;12.612;2023-08-21T07:11:22;100516.66;;;27.46;48.72
60061;BME280;45933;51.336;12.612;2023-08-21T07:13:48;100518.59;;;27.56;48.59
60061;BME280;45933;51.336;12.612;2023-08-21T07:16:15;100520.75;;;27.64;48.92
60061;BME280;45933;51.336;12.612;2023-08-21T07:18:40;100520.88;;;27.75;48.57
60061;BME280;45933;51.336;12.612;2023-08-21T07:21:05;100513.38;;;27.80;48.58
60061;BME280;45933;51.336;12.612;2023-08-21T07:23:31;100504.78;;;27.88;47.36
60061;BME280;45933;51.336;12.612;2023-08-21T07:25:57;100511.78;;;27.91;47.39
60061;BME280;45933;51.336;12.612;2023-08-21T07:28:23;100519.38;;;27.97;46.99
60061;BME280;45933;51.336;12.612;2023-08-21T07:30:54;100521.47;;;28.04;46.77
60061;BME280;45933;51.336;12.612;2023-08-21T07:33:19;100523.22;;;28.05;46.63
60061;BME280;45933;51.336;12.612;2023-08-21T07:35:45;100530.06;;;28.09;46.54
60061;BME280;45933;51.336;12.612;2023-08-21T07:38:10;100524.03;;;28.19;46.19
60061;BME280;45933;51.336;12.612;2023-08-21T07:40:35;100525.53;;;28.23;46.34
60061;BME280;45933;51.336;12.612;2023-08-21T07:43:01;100524.22;;;28.28;46.43
60061;BME280;45933;51.336;12.612;2023-08-21T07:45:26;100528.31;;;28.34;46.12
60061;BME280;45933;51.336;12.612;2023-08-21T07:47:51;100531.97;;;28.33;46.18
60061;BME280;45933;51.336;12.612;2023-08-21T07:50:17;100544.19;;;28.37;46.47
60061;BME280;45933;51.336;12.612;2023-08-21T07:52:42;100549.66;;;28.35;46.32
60061;BME280;45933;51.336;12.612;2023-08-21T07:55:08;100556.38;;;28.41;46.23
60061;BME280;45933;51.336;12.612;2023-08-21T07:57:33;100554.34;;;28.45;46.62
60061;BME280;45933;51.336;12.612;2023-08-21T07:59:59;100549.72;;;28.47;46.54
60061;BME280;45933;51.336;12.612;2023-08-21T08:02:24;100558.41;;;28.50;46.71
60061;BME280;45933;51.336;12.612;2023-08-21T08:04:49;100563.91;;;28.49;47.30
60061;BME280;45933;51.336;12.612;2023-08-21T08:07:15;100563.13;;;28.47;47.51
60061;BME280;45933;51.336;12.612;2023-08-21T08:09:40;100560.69;;;28.44;48.13
60061;BME280;45933;51.336;12.612;2023-08-21T08:12:06;100565.66;;;28.37;48.47
60061;BME280;45933;51.336;12.612;2023-08-21T08:14:32;100571.50;;;28.29;49.08
60061;BME280;45933;51.336;12.612;2023-08-21T08:16:57;100560.38;;;28.23;49.07
60061;BME280;45933;51.336;12.612;2023-08-21T08:19:23;100558.16;;;28.17;49.31
60061;BME280;45933;51.336;12.612;2023-08-21T08:21:48;100563.72;;;28.13;49.76
60061;BME280;45933;51.336;12.612;2023-08-21T08:24:13;100560.91;;;28.15;49.40
60061;BME280;45933;51.336;12.612;2023-08-21T08:26:38;100544.41;;;28.21;50.17
60061;BME280;45933;51.336;12.612;2023-08-21T08:29:04;100551.28;;;28.38;50.26
60061;BME280;45933;51.336;12.612;2023-08-21T08:31:30;100542.72;;;28.57;50.41
60061;BME280;45933;51.336;12.612;2023-08-21T08:33:56;100543.47;;;28.83;49.70
60061;BME280;45933;51.336;12.612;2023-08-21T08:36:21;100539.25;;;29.15;49.65
60061;BME280;45933;51.336;12.612;2023-08-21T08:38:47;100549.59;;;29.44;48.32
60061;BME280;45933;51.336;12.612;2023-08-21T08:41:25;100543.09;;;29.71;47.19
60061;BME280;45933;51.336;12.612;2023-08-21T08:43:55;100541.53;;;29.90;45.80
60061;BME280;45933;51.336;12.612;2023-08-21T08:46:23;100541.91;;;30.19;46.09
60061;BME280;45933;51.336;12.612;2023-08-21T08:48:48;100535.56;;;30.43;45.93
60061;BME280;45933;51.336;12.612;2023-08-21T08:51:14;100533.50;;;30.67;45.22
60061;BME280;45933;51.336;12.612;2023-08-21T08:53:39;100540.69;;;30.89;43.72
60061;BME280;45933;51.336;12.612;2023-08-21T08:56:05;100538.63;;;31.14;43.77
60061;BME280;45933;51.336;12.612;2023-08-21T08:58:30;100526.91;;;31.36;44.02
60061;BME280;45933;51.336;12.612;2023-08-21T09:00:56;100536.84;;;31.56;42.51
60061;BME280;45933;51.336;12.612;2023-08-21T09:03:21;100536.16;;;31.85;41.30
60061;BME280;45933;51.336;12.612;2023-08-21T09:05:46;100540.03;;;32.22;41.54
60061;BME280;45933;51.336;12.612;2023-08-21T09:08:13;100539.13;;;32.52;40.24
60061;BME280;45933;51.336;12.612;2023-08-21T09:10:40;100539.75;;;32.85;38.50
60061;BME280;45933;51.336;12.612;2023-08-21T09:15:36;100527.53;;;33.39;38.21
60061;BME280;45933;51.336;12.612;2023-08-21T09:18:02;100527.78;;;33.65;37.40
60061;BME280;45933;51.336;12.612;2023-08-21T09:20:30;100527.59;;;33.86;37.16
60061;BME280;45933;51.336;12.612;2023-08-21T09:22:59;100524.97;;;34.04;36.62
60061;BME280;45933;51.336;12.612;2023-08-21T09:25:25;100520.41;;;34.32;36.56
60061;BME280;45933;51.336;12.612;2023-08-21T09:27:52;100521.88;;;34.54;35.65
60061;BME280;45933;51.336;12.612;2023-08-21T09:30:18;100528.72;;;34.76;36.00
60061;BME280;45933;51.336;12.612;2023-08-21T09:33:00;100532.59;;;34.91;35.96
60061;BME280;45933;51.336;12.612;2023-08-21T09:35:26;100525.47;;;35.08;36.13
60061;BME280;45933;51.336;12.612;2023-08-21T09:37:52;100526.50;;;35.33;35.27
60061;BME280;45933;51.336;12.612;2023-08-21T09:40:23;100529.97;;;35.43;34.17
60061;BME280;45933;51.336;12.612;2023-08-21T09:42:58;100520.66;;;35.63;35.15
60061;BME280;45933;51.336;12.612;2023-08-21T09:45:25;100525.22;;;35.63;34.49
60061;BME280;45933;51.336;12.612;2023-08-21T09:47:51;100522.25;;;35.74;33.81
60061;BME280;45933;51.336;12.612;2023-08-21T09:50:18;100531.28;;;35.83;33.45
60061;BME280;45933;51.336;12.612;2023-08-21T09:52:45;100520.44;;;35.83;33.50
60061;BME280;45933;51.336;12.612;2023-08-21T09:55:13;100526.81;;;36.00;33.38
60061;BME280;45933;51.336;12.612;2023-08-21T09:57:39;100513.81;;;36.11;33.12
60061;BME280;45933;51.336;12.612;2023-08-21T10:00:06;100522.16;;;36.18;31.63
60061;BME280;45933;51.336;12.612;2023-08-21T10:02:44;100513.00;;;36.27;31.71
60061;BME280;45933;51.336;12.612;2023-08-21T10:05:13;100508.34;;;36.46;32.11
60061;BME280;45933;51.336;12.612;2023-08-21T10:07:40;100511.09;;;36.62;32.05
60061;BME280;45933;51.336;12.612;2023-08-21T10:10:08;100508.09;;;36.81;31.65
60061;BME280;45933;51.336;12.612;2023-08-21T10:12:34;100505.06;;;36.93;32.50
60061;BME280;45933;51.336;12.612;2023-08-21T10:14:59;100503.19;;;37.01;31.50
60061;BME280;45933;51.336;12.612;2023-08-21T10:17:24;100500.47;;;37.26;31.06
60061;BME280;45933;51.336;12.612;2023-08-21T10:19:53;100497.06;;;37.32;29.73
60061;BME280;45933;51.336;12.612;2023-08-21T10:22:38;100498.75;;;37.49;30.84
60061;BME280;45933;51.336;12.612;2023-08-21T10:25:20;100501.31;;;37.51;29.37
60061;BME280;45933;51.336;12.612;2023-08-21T10:27:49;100499.41;;;37.67;28.34
60061;BME280;45933;51.336;12.612;2023-08-21T10:30:20;100487.81;;;37.74;27.42
60061;BME280;45933;51.336;12.612;2023-08-21T10:32:51;100493.41;;;37.88;28.22
60061;BME280;45933;51.336;12.612;2023-08-21T10:35:22;100491.50;;;37.97;28.20
60061;BME280;45933;51.336;12.612;2023-08-21T10:38:06;100486.38;;;38.02;29.08
60061;BME280;45933;51.336;12.612;2023-08-21T10:40:33;100482.13;;;38.00;28.33
60061;BME280;45933;51.336;12.612;2023-08-21T10:42:59;100484.44;;;38.11;27.16
60061;BME280;45933;51.336;12.612;2023-08-21T10:45:24;100488.22;;;38.02;26.17
60061;BME280;45933;51.336;12.612;2023-08-21T10:47:50;100481.06;;;38.09;27.41
60061;BME280;45933;51.336;12.612;2023-08-21T10:50:16;100474.94;;;38.07;25.85
60061;BME280;45933;51.336;12.612;2023-08-21T10:52:43;100476.41;;;38.17;26.30
60061;BME280;45933;51.336;12.612;2023-08-21T10:55:12;100478.06;;;38.27;26.05
60061;BME280;45933;51.336;12.612;2023-08-21T10:57:39;100479.09;;;38.26;25.74
60061;BME280;45933;51.336;12.612;2023-08-21T11:00:07;100484.25;;;38.29;25.68
60061;BME280;45933;51.336;12.612;2023-08-21T11:02:38;100474.81;;;38.39;25.53
60061;BME280;45933;51.336;12.612;2023-08-21T11:05:04;100481.75;;;38.42;25.37
60061;BME280;45933;51.336;12.612;2023-08-21T11:07:30;100482.28;;;38.37;25.12
60061;BME280;45933;51.336;12.612;2023-08-21T11:09:56;100482.59;;;38.42;25.17
60061;BME280;45933;51.336;12.612;2023-08-21T11:12:23;100478.41;;;38.32;24.12
60061;BME280;45933;51.336;12.612;2023-08-21T11:14:49;100484.44;;;38.50;24.99
60061;BME280;45933;51.336;12.612;2023-08-21T11:17:15;100483.34;;;38.59;24.64
60061;BME280;45933;51.336;12.612;2023-08-21T11:19:42;100477.03;;;38.59;24.78
60061;BME280;45933;51.336;12.612;2023-08-21T11:22:08;100476.31;;;38.65;24.51
60061;BME280;45933;51.336;12.612;2023-08-21T11:27:03;100474.97;;;38.92;24.48
60061;BME280;45933;51.336;12.612;2023-08-21T11:29:35;100471.50;;;38.98;24.34
60061;BME280;45933;51.336;12.612;2023-08-21T11:32:02;100477.72;;;39.07;24.61
60061;BME280;45933;51.336;12.612;2023-08-21T11:34:28;100473.03;;;39.15;24.44
60061;BME280;45933;51.336;12.612;2023-08-21T11:36:54;100470.31;;;39.15;23.23
60061;BME280;45933;51.336;12.612;2023-08-21T11:39:19;100479.59;;;39.29;24.40
60061;BME280;45933;51.336;12.612;2023-08-21T11:41:57;100473.75;;;39.32;24.26
60061;BME280;45933;51.336;12.612;2023-08-21T11:44:23;100474.31;;;39.28;24.03
60061;BME280;45933;51.336;12.612;2023-08-21T11:46:52;100474.59;;;39.33;23.76
60061;BME280;45933;51.336;12.612;2023-08-21T11:49:18;100475.56;;;39.40;23.50
60061;BME280;45933;51.336;12.612;2023-08-21T11:51:45;100468.25;;;39.55;24.06
60061;BME280;45933;51.336;12.612;2023-08-21T11:54:11;100466.81;;;39.59;23.16
60061;BME280;45933;51.336;12.612;2023-08-21T11:56:38;100465.59;;;39.62;24.54
60061;BME280;45933;51.336;12.612;2023-08-21T11:59:04;100472.78;;;39.63;23.78
60061;BME280;45933;51.336;12.612;2023-08-21T12:01:32;100467.78;;;39.66;23.42
60061;BME280;45933;51.336;12.612;2023-08-21T12:03:59;100463.22;;;39.59;23.70
60061;BME280;45933;51.336;12.612;2023-08-21T12:06:24;100462.13;;;39.68;24.36
60061;BME280;45933;51.336;12.612;2023-08-21T12:08:51;100464.28;;;39.58;23.65
60061;BME280;45933;51.336;12.612;2023-08-21T12:11:16;100461.50;;;39.66;23.05
60061;BME280;45933;51.336;12.612;2023-08-21T12:13:41;100461.50;;;39.66;23.10
60061;BME280;45933;51.336;12.612;2023-08-21T12:16:07;100459.66;;;39.58;23.03
60061;BME280;45933;51.336;12.612;2023-08-21T12:18:32;100457.31;;;39.70;23.90
60061;BME280;45933;51.336;12.612;2023-08-21T12:20:58;100463.25;;;39.73;23.23
60061;BME280;45933;51.336;12.612;2023-08-21T12:23:23;100454.72;;;39.77;23.14
60061;BME280;45933;51.336;12.612;2023-08-21T12:25:48;100468.81;;;39.80;22.78
60061;BME280;45933;51.336;12.612;2023-08-21T12:28:15;100461.66;;;39.64;23.28
60061;BME280;45933;51.336;12.612;2023-08-21T12:30:40;100453.69;;;39.63;22.70
60061;BME280;45933;51.336;12.612;2023-08-21T12:33:05;100450.34;;;39.53;22.51
60061;BME280;45933;51.336;12.612;2023-08-21T12:35:31;100449.22;;;39.62;23.14
60061;BME280;45933;51.336;12.612;2023-08-21T12:37:57;100451.00;;;39.55;23.20
60061;BME280;45933;51.336;12.612;2023-08-21T12:40:31;100451.28;;;39.60;23.25